createdAt,value
2018-06-27T00:01:20.237Z,101948.73
2018-06-27T00:03:48.822Z,101955.14
2018-06-27T00:06:17.506Z,101956.58
2018-06-27T00:08:46.119Z,101965.31
2018-06-27T00:11:14.770Z,101957.05
2018-06-27T00:13:43.395Z,101949.29
2018-06-27T00:16:12.034Z,101968.44
2018-06-27T00:18:40.712Z,101974.95
2018-06-27T00:21:09.681Z,101973.48
2018-06-27T00:23:38.365Z,101985.48
2018-06-27T00:26:07.125Z,101982.55
2018-06-27T00:28:35.750Z,101981.88
2018-06-27T00:31:04.378Z,101994.86
2018-06-27T00:33:33.077Z,101993.73
2018-06-27T00:36:01.815Z,101998.56
2018-06-27T00:38:30.450Z,102013.33
2018-06-27T00:40:59.167Z,102005.61
2018-06-27T00:43:27.809Z,102016.20
2018-06-27T00:45:56.516Z,102011.41
2018-06-27T00:48:25.163Z,102018.28
2018-06-27T00:50:53.877Z,102018.62
2018-06-27T00:53:26.614Z,101999.92
2018-06-27T00:55:55.292Z,102012.49
2018-06-27T00:58:23.857Z,102022.73
2018-06-27T01:00:52.534Z,102024.70
2018-06-27T01:03:21.164Z,102043.44
2018-06-27T01:05:49.823Z,102048.23
2018-06-27T01:08:18.496Z,102061.45
2018-06-27T01:10:47.109Z,102061.78
2018-06-27T01:13:15.803Z,102060.11
2018-06-27T01:15:44.460Z,102066.87
2018-06-27T01:18:13.051Z,102069.34
2018-06-27T01:20:41.824Z,102073.72
2018-06-27T01:23:10.449Z,102080.13
2018-06-27T01:25:39.074Z,102080.26
2018-06-27T01:28:07.737Z,102080.36
2018-06-27T01:30:36.288Z,102078.97
2018-06-27T01:33:04.926Z,102076.41
2018-06-27T01:35:33.693Z,102072.50
2018-06-27T01:38:02.398Z,102088.76
2018-06-27T01:40:31.067Z,102097.53
2018-06-27T01:42:59.634Z,102110.46
2018-06-27T01:45:28.230Z,102105.23
2018-06-27T01:47:56.879Z,102102.51
2018-06-27T01:50:25.568Z,102109.31
2018-06-27T01:52:54.252Z,102108.94
2018-06-27T01:55:22.861Z,102105.83
2018-06-27T01:57:51.495Z,102115.53
2018-06-27T02:00:20.178Z,102118.75
2018-06-27T02:02:48.944Z,102125.22
2018-06-27T02:05:17.642Z,102126.73
2018-06-27T02:07:46.313Z,102122.20
2018-06-27T02:10:14.937Z,102136.07
2018-06-27T02:12:43.799Z,102130.38
2018-06-27T02:15:12.556Z,102136.38
2018-06-27T02:17:41.224Z,102135.14
2018-06-27T02:20:09.856Z,102134.38
2018-06-27T02:22:38.545Z,102132.77
2018-06-27T02:25:07.138Z,102128.95
2018-06-27T02:27:35.817Z,102134.11
2018-06-27T02:30:04.727Z,102135.91
2018-06-27T02:32:33.323Z,102131.54
2018-06-27T02:35:01.965Z,102130.14
2018-06-27T02:37:30.726Z,102142.19
2018-06-27T02:39:59.412Z,102144.17
2018-06-27T02:42:28.060Z,102142.30
2018-06-27T02:44:56.709Z,102147.70
2018-06-27T02:47:25.421Z,102150.74
2018-06-27T02:49:54.174Z,102149.33
2018-06-27T02:52:22.771Z,102149.03
2018-06-27T02:54:51.367Z,102145.05
2018-06-27T02:57:19.995Z,102140.98
2018-06-27T02:59:48.757Z,102147.72
2018-06-27T03:02:17.394Z,102143.26
2018-06-27T03:04:46.026Z,102145.36
2018-06-27T03:07:14.687Z,102144.89
2018-06-27T03:09:43.391Z,102149.34
2018-06-27T03:12:12.064Z,102152.09
2018-06-27T03:14:40.760Z,102147.08
2018-06-27T03:17:09.425Z,102152.39
2018-06-27T03:19:38.076Z,102153.34
2018-06-27T03:22:06.925Z,102148.28
2018-06-27T03:24:35.575Z,102151.92
2018-06-27T03:27:04.299Z,102157.59
2018-06-27T03:29:32.949Z,102157.49
2018-06-27T03:32:06.984Z,102156.84
2018-06-27T03:34:35.616Z,102169.55
2018-06-27T03:37:04.318Z,102168.59
2018-06-27T03:39:32.907Z,102158.91
2018-06-27T03:42:01.687Z,102165.77
2018-06-27T03:44:30.241Z,102169.28
2018-06-27T03:46:58.802Z,102174.21
2018-06-27T03:49:27.455Z,102176.10
2018-06-27T03:51:56.080Z,102168.98
2018-06-27T03:54:24.784Z,102174.59
2018-06-27T03:56:53.472Z,102166.31
2018-06-27T03:59:22.212Z,102176.56
2018-06-27T04:01:50.903Z,102176.77
2018-06-27T04:04:19.653Z,102171.72
2018-06-27T04:06:48.330Z,102189.68
2018-06-27T04:09:16.936Z,102175.81
2018-06-27T04:11:45.583Z,102180.74
2018-06-27T04:14:14.288Z,102178.56
2018-06-27T04:16:42.881Z,102173.05
2018-06-27T04:19:11.511Z,102172.86
2018-06-27T04:21:40.142Z,102012.81
2018-06-27T04:24:08.766Z,102178.66
2018-06-27T04:26:37.457Z,102175.44
2018-06-27T04:29:06.131Z,102174.95
2018-06-27T04:31:34.790Z,102176.74
2018-06-27T04:34:03.462Z,102181.86
2018-06-27T04:36:32.106Z,102180.53
2018-06-27T04:39:00.686Z,102171.12
2018-06-27T04:41:29.324Z,102179.25
2018-06-27T04:43:57.984Z,102178.23
2018-06-27T04:46:26.597Z,102185.09
2018-06-27T04:48:55.379Z,102175.96
2018-06-27T04:51:23.949Z,102186.82
2018-06-27T04:53:52.614Z,102184.14
2018-06-27T04:56:21.180Z,102176.50
2018-06-27T04:58:49.838Z,102184.19
2018-06-27T05:01:18.534Z,102183.69
2018-06-27T05:03:47.238Z,102182.33
2018-06-27T05:06:16.016Z,102186.36
2018-06-27T05:08:44.590Z,102190.36
2018-06-27T05:11:13.293Z,102176.86
2018-06-27T05:13:41.867Z,102180.15
2018-06-27T05:16:10.592Z,102174.19
2018-06-27T05:18:39.349Z,102181.67
2018-06-27T05:21:07.948Z,102176.34
2018-06-27T05:23:36.593Z,102176.03
2018-06-27T05:26:05.319Z,102183.38
2018-06-27T05:28:33.976Z,102192.75
2018-06-27T05:31:02.579Z,102193.41
2018-06-27T05:33:31.260Z,102189.75
2018-06-27T05:35:59.904Z,102185.05
2018-06-27T05:38:28.704Z,102193.41
2018-06-27T05:40:57.422Z,102182.52
2018-06-27T05:43:26.311Z,102205.30
2018-06-27T05:45:55.011Z,102194.59
2018-06-27T05:48:23.630Z,102199.78
2018-06-27T05:50:52.364Z,102213.02
2018-06-27T05:53:21.051Z,102222.87
2018-06-27T05:55:49.674Z,102224.86
2018-06-27T05:58:18.514Z,102243.42
2018-06-27T06:00:47.038Z,102226.00
2018-06-27T06:03:15.729Z,102226.39
2018-06-27T06:05:44.353Z,102216.48
2018-06-27T06:08:12.999Z,102223.38
2018-06-27T06:10:41.711Z,102232.97
2018-06-27T06:13:10.384Z,102234.91
2018-06-27T06:15:39.150Z,102239.09
2018-06-27T06:18:07.831Z,102236.84
2018-06-27T06:20:36.471Z,102235.17
2018-06-27T06:23:05.085Z,102226.17
2018-06-27T06:25:33.843Z,102231.69
2018-06-27T06:28:02.569Z,102240.83
2018-06-27T06:30:31.155Z,102250.58
2018-06-27T06:32:59.821Z,102253.75
2018-06-27T06:35:28.690Z,102248.52
2018-06-27T06:37:57.430Z,102251.46
2018-06-27T06:40:26.059Z,102263.22
2018-06-27T06:42:54.665Z,102258.30
2018-06-27T06:45:23.576Z,102261.69
2018-06-27T06:47:52.275Z,102285.69
2018-06-27T06:50:21.003Z,102262.22
2018-06-27T06:52:49.704Z,102112.36
2018-06-27T06:55:18.371Z,102273.87
2018-06-27T06:57:47.107Z,102275.78
2018-06-27T07:00:15.735Z,102265.72
2018-06-27T07:02:44.435Z,102270.36
2018-06-27T07:05:13.201Z,102277.17
2018-06-27T07:07:41.956Z,102276.64
2018-06-27T07:10:10.539Z,102270.97
2018-06-27T07:12:39.199Z,102279.37
2018-06-27T07:15:07.935Z,102279.98
2018-06-27T07:17:36.663Z,102280.44
2018-06-27T07:20:05.665Z,102271.79
2018-06-27T07:22:34.281Z,102269.30
2018-06-27T07:25:02.889Z,102262.62
2018-06-27T07:27:31.609Z,102266.82
2018-06-27T07:30:00.337Z,102282.70
2018-06-27T07:32:29.214Z,102256.14
2018-06-27T07:34:58.067Z,102259.30
2018-06-27T07:37:26.856Z,102253.26
2018-06-27T07:39:55.703Z,102251.81
2018-06-27T07:42:24.392Z,102256.78
2018-06-27T07:44:53.159Z,102267.00
2018-06-27T07:47:21.880Z,102264.22
2018-06-27T07:49:50.714Z,102271.42
2018-06-27T07:52:19.281Z,102272.29
2018-06-27T07:54:48.002Z,102276.42
2018-06-27T07:57:16.659Z,102273.27
2018-06-27T07:59:45.403Z,102288.96
2018-06-27T08:02:14.123Z,102288.84
2018-06-27T08:04:42.814Z,102290.40
2018-06-27T08:07:11.446Z,102293.83
2018-06-27T08:09:40.130Z,102289.94
2018-06-27T08:12:08.840Z,102289.33
2018-06-27T08:14:37.599Z,102298.73
2018-06-27T08:17:06.220Z,102291.51
2018-06-27T08:19:34.847Z,102286.40
2018-06-27T08:22:03.697Z,102284.53
2018-06-27T08:24:32.316Z,102292.73
2018-06-27T08:27:00.967Z,102292.97
2018-06-27T08:29:29.864Z,102295.64
2018-06-27T08:31:58.647Z,102322.00
2018-06-27T08:34:27.270Z,102305.63
2018-06-27T08:36:55.965Z,102308.88
2018-06-27T08:39:24.727Z,102301.23
2018-06-27T08:41:53.438Z,102302.48
2018-06-27T08:44:22.076Z,102300.98
2018-06-27T08:46:50.945Z,102303.95
2018-06-27T08:49:19.574Z,102290.48
2018-06-27T08:51:48.296Z,102304.97
2018-06-27T08:54:16.970Z,102305.02
2018-06-27T08:56:45.602Z,102313.41
2018-06-27T08:59:14.272Z,102317.55
2018-06-27T09:01:43.001Z,102301.09
2018-06-27T09:04:11.656Z,102302.30
2018-06-27T09:06:40.360Z,102316.22
2018-06-27T09:09:11.307Z,102296.39
2018-06-27T09:11:39.965Z,102301.02
2018-06-27T09:14:08.775Z,102299.02
2018-06-27T09:16:37.313Z,102302.27
2018-06-27T09:19:05.963Z,102307.64
2018-06-27T09:21:34.568Z,102308.73
2018-06-27T09:24:03.268Z,102315.95
2018-06-27T09:26:31.878Z,102311.52
2018-06-27T09:29:00.581Z,102310.17
2018-06-27T09:31:29.399Z,102311.87
2018-06-27T09:33:58.129Z,102310.50
2018-06-27T09:36:26.792Z,102318.22
2018-06-27T09:38:55.900Z,102314.48
2018-06-27T09:41:24.508Z,102320.95
2018-06-27T09:43:53.134Z,102312.11
2018-06-27T09:46:21.770Z,102316.70
2018-06-27T09:48:50.392Z,102316.16
2018-06-27T09:51:19.088Z,102303.00
2018-06-27T09:53:47.730Z,102303.29
2018-06-27T09:56:16.464Z,102310.83
2018-06-27T09:58:45.151Z,102318.84
2018-06-27T10:01:13.965Z,102324.39
2018-06-27T10:03:42.683Z,102322.50
2018-06-27T10:06:11.379Z,102322.69
2018-06-27T10:08:40.039Z,102321.55
2018-06-27T10:11:08.667Z,102309.13
2018-06-27T10:13:37.494Z,102305.67
2018-06-27T10:16:06.367Z,102314.53
2018-06-27T10:18:34.919Z,102317.50
2018-06-27T10:21:03.604Z,102312.27
2018-06-27T10:23:32.402Z,102302.77
2018-06-27T10:26:00.966Z,102313.06
2018-06-27T10:28:32.619Z,102301.91
2018-06-27T10:31:01.241Z,102310.33
2018-06-27T10:33:29.973Z,102315.97
2018-06-27T10:35:58.608Z,102307.50
2018-06-27T10:38:27.288Z,102315.58
2018-06-27T10:40:56.132Z,102314.33
2018-06-27T10:43:24.766Z,102311.19
2018-06-27T10:45:53.444Z,102317.33
2018-06-27T10:48:22.095Z,102312.09
2018-06-27T10:50:50.777Z,102311.04
2018-06-27T10:53:19.418Z,102308.91
2018-06-27T10:55:48.098Z,102315.95
2018-06-27T10:58:16.670Z,102297.95
2018-06-27T11:00:45.256Z,102326.86
2018-06-27T11:03:13.874Z,102311.72
2018-06-27T11:05:42.598Z,102322.13
2018-06-27T11:08:11.265Z,102318.92
2018-06-27T11:10:39.917Z,102314.59
2018-06-27T11:13:08.519Z,102329.11
2018-06-27T11:15:37.184Z,102326.38
2018-06-27T11:18:05.802Z,102325.83
2018-06-27T11:20:34.515Z,102324.33
2018-06-27T11:23:03.184Z,102326.67
2018-06-27T11:25:32.173Z,102324.66
2018-06-27T11:28:00.763Z,102325.62
2018-06-27T11:30:29.373Z,102324.36
2018-06-27T11:32:58.136Z,102330.56
2018-06-27T11:35:26.748Z,102335.83
2018-06-27T11:37:55.406Z,102333.94
2018-06-27T11:40:24.000Z,102328.94
2018-06-27T11:42:52.738Z,102339.26
2018-06-27T11:45:22.222Z,102344.06
2018-06-27T11:47:51.094Z,102333.55
2018-06-27T11:50:19.787Z,102334.56
2018-06-27T11:52:48.408Z,102216.39
2018-06-27T11:55:17.080Z,102342.05
2018-06-27T11:57:45.825Z,102333.58
2018-06-27T12:00:14.824Z,102341.55
2018-06-27T12:02:43.523Z,102328.98
2018-06-27T12:05:12.261Z,102332.59
2018-06-27T12:07:40.894Z,102323.95
2018-06-27T12:10:09.743Z,102327.29
2018-06-27T12:12:38.326Z,102327.49
2018-06-27T12:15:07.082Z,102328.97
2018-06-27T12:17:35.707Z,102320.52
2018-06-27T12:20:04.452Z,102329.79
2018-06-27T12:22:33.032Z,102317.78
2018-06-27T12:25:01.637Z,102317.72
2018-06-27T12:27:30.442Z,102318.05
2018-06-27T12:29:59.239Z,102318.19
2018-06-27T12:32:27.882Z,102316.59
2018-06-27T12:34:56.541Z,102318.37
2018-06-27T12:37:25.099Z,102320.22
2018-06-27T12:39:53.681Z,102318.64
2018-06-27T12:42:22.484Z,102327.94
2018-06-27T12:44:51.246Z,102319.76
2018-06-27T12:47:19.851Z,102326.62
2018-06-27T12:49:48.814Z,102328.02
2018-06-27T12:52:17.459Z,102316.04
2018-06-27T12:54:46.161Z,102319.46
2018-06-27T12:57:14.820Z,102319.97
2018-06-27T12:59:43.504Z,102325.53
2018-06-27T13:02:12.169Z,102333.64
2018-06-27T13:04:40.861Z,102319.86
2018-06-27T13:07:09.591Z,102317.61
2018-06-27T13:09:38.275Z,102320.64
2018-06-27T13:12:07.258Z,102330.63
2018-06-27T13:14:35.920Z,102322.08
2018-06-27T13:17:04.596Z,102318.02
2018-06-27T13:19:33.231Z,102314.92
2018-06-27T13:22:01.840Z,102300.23
2018-06-27T13:24:30.574Z,102289.78
2018-06-27T13:26:59.256Z,102286.02
2018-06-27T13:29:28.234Z,102284.00
2018-06-27T13:31:56.817Z,102279.68
2018-06-27T13:34:25.568Z,102284.66
2018-06-27T13:36:54.428Z,102279.62
2018-06-27T13:39:23.000Z,102285.90
2018-06-27T13:41:51.659Z,102276.33
2018-06-27T13:44:20.281Z,102281.67
2018-06-27T13:46:48.972Z,102279.57
2018-06-27T13:49:17.723Z,102280.98
2018-06-27T13:51:46.420Z,102281.22
2018-06-27T13:54:15.027Z,102289.80
2018-06-27T13:56:43.728Z,102285.94
2018-06-27T13:59:12.599Z,102289.75
2018-06-27T14:01:41.349Z,102279.38
2018-06-27T14:04:10.161Z,102274.84
2018-06-27T14:06:38.790Z,102269.80
2018-06-27T14:09:08.921Z,102269.83
2018-06-27T14:11:37.642Z,102266.44
2018-06-27T14:14:06.468Z,102266.97
2018-06-27T14:16:35.359Z,102258.47
2018-06-27T14:19:04.040Z,102264.34
2018-06-27T14:21:32.820Z,102264.39
2018-06-27T14:24:01.503Z,102269.70
2018-06-27T14:26:30.091Z,102263.90
2018-06-27T14:28:58.847Z,102267.42
2018-06-27T14:31:27.580Z,102268.82
2018-06-27T14:33:56.170Z,102259.63
2018-06-27T14:36:24.955Z,102257.48
2018-06-27T14:38:53.593Z,102260.11
2018-06-27T14:41:22.229Z,102249.57
2018-06-27T14:43:50.923Z,102264.95
2018-06-27T14:46:19.594Z,102271.53
2018-06-27T14:48:48.273Z,102262.34
2018-06-27T14:51:17.030Z,102261.73
2018-06-27T14:53:45.710Z,102260.63
2018-06-27T14:56:14.284Z,102259.98
2018-06-27T14:58:42.873Z,102265.95
2018-06-27T15:01:11.689Z,102251.84
2018-06-27T15:03:40.278Z,102261.53
2018-06-27T15:06:09.031Z,102250.57
2018-06-27T15:08:37.760Z,102253.97
2018-06-27T15:11:06.463Z,102253.42
2018-06-27T15:13:35.244Z,102262.31
2018-06-27T15:16:03.999Z,102259.08
2018-06-27T15:18:32.715Z,102256.48
2018-06-27T15:21:01.351Z,102262.80
2018-06-27T15:23:30.054Z,102262.55
2018-06-27T15:25:58.584Z,102257.11
2018-06-27T15:28:27.245Z,102260.69
2018-06-27T15:30:55.884Z,102264.13
2018-06-27T15:33:24.575Z,102258.26
2018-06-27T15:35:53.165Z,102263.89
2018-06-27T15:38:21.881Z,102265.31
2018-06-27T15:40:50.645Z,102266.39
2018-06-27T15:43:19.466Z,102273.13
2018-06-27T15:48:22.843Z,102250.36
2018-06-27T15:50:51.580Z,102253.25
2018-06-27T15:53:20.499Z,102252.11
2018-06-27T15:55:49.251Z,102248.10
2018-06-27T15:58:17.968Z,102234.39
2018-06-27T16:00:46.860Z,102244.04
2018-06-27T16:03:15.558Z,102236.70
2018-06-27T16:05:44.264Z,102235.65
2018-06-27T16:08:13.110Z,102242.91
2018-06-27T16:10:41.744Z,102236.36
2018-06-27T16:13:10.526Z,102236.28
2018-06-27T16:15:39.165Z,102232.66
2018-06-27T16:18:07.840Z,102232.84
2018-06-27T16:20:36.667Z,102227.29
2018-06-27T16:23:05.397Z,102234.59
2018-06-27T16:25:34.142Z,102230.39
2018-06-27T16:28:02.804Z,102230.34
2018-06-27T16:30:31.484Z,102226.81
2018-06-27T16:33:00.183Z,102220.06
2018-06-27T16:35:28.894Z,102230.23
2018-06-27T16:37:57.459Z,102225.22
2018-06-27T16:40:26.216Z,102212.30
2018-06-27T16:42:54.965Z,102225.22
2018-06-27T16:45:23.581Z,102226.60
2018-06-27T16:47:52.301Z,102223.88
2018-06-27T16:50:20.896Z,102220.24
2018-06-27T16:52:49.579Z,102222.44
2018-06-27T16:55:18.242Z,102221.35
2018-06-27T16:57:46.921Z,102222.49
2018-06-27T17:00:15.887Z,102211.71
2018-06-27T17:02:44.547Z,102210.73
2018-06-27T17:05:13.181Z,102208.04
2018-06-27T17:07:41.830Z,102211.73
2018-06-27T17:10:11.017Z,102207.89
2018-06-27T17:12:39.705Z,102207.40
2018-06-27T17:15:08.439Z,102209.03
2018-06-27T17:18:40.004Z,102207.69
2018-06-27T17:21:09.039Z,102195.96
2018-06-27T17:23:37.881Z,102195.32
2018-06-27T17:26:06.504Z,102198.08
2018-06-27T17:28:35.289Z,102201.27
2018-06-27T17:31:04.023Z,102194.03
2018-06-27T17:33:32.668Z,102189.67
2018-06-27T17:36:01.477Z,102189.73
2018-06-27T17:38:31.429Z,102179.78
2018-06-27T17:41:00.332Z,102180.31
2018-06-27T17:43:29.066Z,102175.13
2018-06-27T17:45:57.705Z,102174.17
2018-06-27T17:48:26.420Z,102175.02
2018-06-27T17:50:55.644Z,102178.71
2018-06-27T17:53:24.386Z,102174.08
2018-06-27T17:55:53.436Z,102171.02
2018-06-27T17:58:22.430Z,102168.33
2018-06-27T18:00:51.215Z,102169.18
2018-06-27T18:03:20.062Z,102164.72
2018-06-27T18:05:48.738Z,102171.88
2018-06-27T18:08:17.532Z,102169.64
2018-06-27T18:10:46.390Z,102178.36
2018-06-27T18:13:15.695Z,102180.52
2018-06-27T18:15:44.854Z,102186.50
2018-06-27T18:18:13.896Z,102186.64
2018-06-27T18:20:42.777Z,102185.69
2018-06-27T18:23:11.700Z,102177.25
2018-06-27T18:25:40.434Z,102183.90
2018-06-27T18:28:09.060Z,102179.42
2018-06-27T18:30:38.137Z,102174.40
2018-06-27T18:33:07.642Z,102173.67
2018-06-27T18:35:36.597Z,102179.13
2018-06-27T18:38:05.595Z,102171.00
2018-06-27T18:40:34.354Z,102161.48
2018-06-27T18:43:03.125Z,102152.80
2018-06-27T18:45:31.774Z,102152.09
2018-06-27T18:48:00.439Z,101997.98
2018-06-27T18:50:29.791Z,102155.78
2018-06-27T18:52:59.094Z,102158.78
2018-06-27T18:55:28.661Z,102158.66
2018-06-27T18:57:57.572Z,102160.00
2018-06-27T19:00:26.395Z,102167.56
2018-06-27T19:02:55.201Z,102164.92
2018-06-27T19:05:24.293Z,102166.57
2018-06-27T19:07:52.887Z,102163.38
2018-06-27T19:10:21.508Z,102169.45
2018-06-27T19:12:50.222Z,102165.72
2018-06-27T19:15:19.412Z,102171.73
2018-06-27T19:17:48.806Z,102174.19
2018-06-27T19:20:17.449Z,102170.09
2018-06-27T19:22:46.178Z,102175.94
2018-06-27T19:25:15.023Z,102171.69
2018-06-27T19:27:43.855Z,102167.00
2018-06-27T19:30:13.903Z,102172.99
2018-06-27T19:32:43.711Z,102177.45
2018-06-27T19:35:12.911Z,102178.09
2018-06-27T19:37:41.856Z,102178.64
2018-06-27T19:40:10.758Z,102186.72
2018-06-27T19:42:39.481Z,102190.94
2018-06-27T19:45:08.226Z,102193.78
2018-06-27T19:47:36.848Z,102191.84
2018-06-27T19:50:05.800Z,102194.47
2018-06-27T19:52:34.970Z,102192.33
2018-06-27T19:55:04.117Z,102191.45
2018-06-27T19:57:32.940Z,102187.67
2018-06-27T20:00:01.774Z,102181.27
2018-06-27T20:02:30.569Z,102177.70
2018-06-27T20:04:59.199Z,102174.58
2018-06-27T20:07:27.970Z,102167.19
2018-06-27T20:09:56.956Z,102166.38
2018-06-27T20:12:25.824Z,102039.30
2018-06-27T20:14:54.645Z,102161.55
2018-06-27T20:17:23.864Z,102158.81
2018-06-27T20:19:52.679Z,102160.79
2018-06-27T20:22:21.777Z,102164.38
2018-06-27T20:24:50.567Z,102155.02
2018-06-27T20:27:19.264Z,102158.09
2018-06-27T20:29:48.015Z,102170.05
2018-06-27T20:32:16.852Z,102165.89
2018-06-27T20:34:46.531Z,102168.11
2018-06-27T20:37:15.998Z,102170.05
2018-06-27T20:39:45.304Z,102178.33
2018-06-27T20:42:14.516Z,102167.39
2018-06-27T20:44:43.371Z,102166.06
2018-06-27T20:47:12.014Z,102163.62
2018-06-27T20:49:40.993Z,102160.10
2018-06-27T20:52:09.852Z,102150.14
2018-06-27T20:54:38.634Z,102162.19
2018-06-27T20:57:07.734Z,102150.88
2018-06-27T20:59:36.475Z,102157.42
2018-06-27T21:02:05.222Z,102155.98
2018-06-27T21:04:33.843Z,102160.37
2018-06-27T21:07:03.045Z,102153.66
2018-06-27T21:09:31.656Z,102151.58
2018-06-27T21:12:00.672Z,102148.05
2018-06-27T21:14:29.277Z,102150.73
2018-06-27T21:16:58.101Z,102150.51
2018-06-27T21:19:27.037Z,102149.73
2018-06-27T21:21:57.054Z,102146.80
2018-06-27T21:24:25.821Z,102151.88
2018-06-27T21:26:54.527Z,102149.80
2018-06-27T21:29:24.064Z,102145.41
2018-06-27T21:31:53.064Z,102145.34
2018-06-27T21:34:21.935Z,102156.36
2018-06-27T21:36:51.006Z,102150.78
2018-06-27T21:39:19.750Z,102148.48
2018-06-27T21:41:49.148Z,101995.00
2018-06-27T21:44:17.970Z,102144.76
2018-06-27T21:46:46.647Z,102141.45
2018-06-27T21:49:15.309Z,102138.76
2018-06-27T21:51:44.017Z,102144.69
2018-06-27T21:54:12.734Z,102149.66
2018-06-27T21:56:41.396Z,102148.30
2018-06-27T21:59:10.057Z,102145.04
2018-06-27T22:01:38.624Z,102136.60
2018-06-27T22:04:07.325Z,102137.94
2018-06-27T22:06:35.989Z,102132.22
2018-06-27T22:09:06.401Z,102130.78
2018-06-27T22:11:35.183Z,102133.19
2018-06-27T22:14:04.035Z,102133.29
2018-06-27T22:16:32.738Z,102138.98
2018-06-27T22:19:01.298Z,102141.00
2018-06-27T22:21:29.927Z,102138.44
2018-06-27T22:23:58.702Z,102134.68
2018-06-27T22:26:27.364Z,102130.57
2018-06-27T22:28:56.112Z,102130.44
2018-06-27T22:31:24.755Z,102131.53
2018-06-27T22:33:53.416Z,102131.13
2018-06-27T22:36:22.081Z,102133.42
2018-06-27T22:38:50.744Z,102138.73
2018-06-27T22:41:19.437Z,102127.69
2018-06-27T22:43:48.015Z,102132.75
2018-06-27T22:46:16.805Z,102127.48
2018-06-27T22:48:45.457Z,102137.58
2018-06-27T22:51:14.154Z,102141.89
2018-06-27T22:53:42.777Z,102139.46
2018-06-27T22:56:11.353Z,102134.44
2018-06-27T22:58:40.025Z,102137.95
2018-06-27T23:01:08.732Z,102131.77
2018-06-27T23:03:37.420Z,102131.91
2018-06-27T23:06:06.079Z,102132.86
2018-06-27T23:08:34.768Z,102133.23
2018-06-27T23:11:03.401Z,102135.63
2018-06-27T23:13:32.020Z,102134.30
2018-06-27T23:16:00.708Z,102128.69
2018-06-27T23:18:29.462Z,102133.12
2018-06-27T23:20:58.097Z,102125.61
2018-06-27T23:23:26.690Z,102127.91
2018-06-27T23:25:55.354Z,102121.03
2018-06-27T23:28:23.919Z,102123.84
2018-06-27T23:30:52.568Z,102130.40
2018-06-27T23:33:21.131Z,102126.94
2018-06-27T23:35:49.761Z,102122.36
2018-06-27T23:38:18.822Z,102118.56
2018-06-27T23:40:47.406Z,102116.52
2018-06-27T23:43:16.136Z,102115.28
2018-06-27T23:45:44.797Z,102105.78
2018-06-27T23:48:13.447Z,102112.10
2018-06-27T23:50:42.020Z,102106.77
2018-06-27T23:53:10.716Z,102104.14
2018-06-27T23:55:39.494Z,102098.22
2018-06-27T23:58:08.216Z,102101.68
